sensor_id;sensor_type;location;lat;lon;timestamp;P1;durP1;ratioP1;P2;durP2;ratioP2
11807;SDS011;5961;42.640;23.380;2022-12-24T00:01:44;11.50;;;7.83;;
11807;SDS011;5961;42.640;23.380;2022-12-24T00:04:11;9.00;;;6.20;;
11807;SDS011;5961;42.640;23.380;2022-12-24T00:06:37;8.73;;;6.27;;
11807;SDS011;5961;42.640;23.380;2022-12-24T00:09:04;8.07;;;5.50;;
11807;SDS011;5961;42.640;23.380;2022-12-24T00:11:31;9.93;;;6.40;;
11807;SDS011;5961;42.640;23.380;2022-12-24T00:13:57;9.07;;;6.10;;
11807;SDS011;5961;42.640;23.380;2022-12-24T00:16:24;13.57;;;7.10;;
11807;SDS011;5961;42.640;23.380;2022-12-24T00:18:52;10.90;;;7.23;;
11807;SDS011;5961;42.640;23.380;2022-12-24T00:21:19;8.80;;;6.37;;
11807;SDS011;5961;42.640;23.380;2022-12-24T00:23:45;9.67;;;6.87;;
11807;SDS011;5961;42.640;23.380;2022-12-24T00:26:12;8.23;;;6.40;;
11807;SDS011;5961;42.640;23.380;2022-12-24T00:28:39;8.33;;;6.23;;
11807;SDS011;5961;42.640;23.380;2022-12-24T00:31:07;10.57;;;6.30;;
11807;SDS011;5961;42.640;23.380;2022-12-24T00:33:35;10.23;;;6.87;;
11807;SDS011;5961;42.640;23.380;2022-12-24T00:36:03;8.50;;;5.50;;
11807;SDS011;5961;42.640;23.380;2022-12-24T00:38:30;7.57;;;5.10;;
11807;SDS011;5961;42.640;23.380;2022-12-24T00:40:57;8.40;;;5.87;;
11807;SDS011;5961;42.640;23.380;2022-12-24T00:43:25;9.20;;;6.50;;
11807;SDS011;5961;42.640;23.380;2022-12-24T00:45:52;7.67;;;5.33;;
11807;SDS011;5961;42.640;23.380;2022-12-24T00:48:19;9.17;;;5.97;;
11807;SDS011;5961;42.640;23.380;2022-12-24T00:50:46;8.50;;;5.77;;
11807;SDS011;5961;42.640;23.380;2022-12-24T00:53:15;8.93;;;6.27;;
11807;SDS011;5961;42.640;23.380;2022-12-24T00:55:41;9.07;;;6.33;;
11807;SDS011;5961;42.640;23.380;2022-12-24T00:58:08;7.37;;;5.77;;
11807;SDS011;5961;42.640;23.380;2022-12-24T01:00:35;8.83;;;6.17;;
11807;SDS011;5961;42.640;23.380;2022-12-24T01:03:01;9.80;;;6.13;;
11807;SDS011;5961;42.640;23.380;2022-12-24T01:05:28;7.80;;;6.43;;
11807;SDS011;5961;42.640;23.380;2022-12-24T01:07:54;10.37;;;6.70;;
11807;SDS011;5961;42.640;23.380;2022-12-24T01:10:22;8.63;;;6.17;;
11807;SDS011;5961;42.640;23.380;2022-12-24T01:12:49;10.20;;;6.80;;
11807;SDS011;5961;42.640;23.380;2022-12-24T01:15:15;10.47;;;6.33;;
11807;SDS011;5961;42.640;23.380;2022-12-24T01:17:42;8.77;;;6.17;;
11807;SDS011;5961;42.640;23.380;2022-12-24T01:20:10;9.53;;;5.77;;
11807;SDS011;5961;42.640;23.380;2022-12-24T01:22:39;8.30;;;6.07;;
11807;SDS011;5961;42.640;23.380;2022-12-24T01:25:07;9.97;;;5.80;;
11807;SDS011;5961;42.640;23.380;2022-12-24T01:27:36;8.47;;;6.10;;
11807;SDS011;5961;42.640;23.380;2022-12-24T01:30:03;12.40;;;6.60;;
11807;SDS011;5961;42.640;23.380;2022-12-24T01:32:32;15.43;;;9.03;;
11807;SDS011;5961;42.640;23.380;2022-12-24T01:34:59;20.60;;;12.10;;
11807;SDS011;5961;42.640;23.380;2022-12-24T01:37:26;19.63;;;12.33;;
11807;SDS011;5961;42.640;23.380;2022-12-24T01:39:52;18.20;;;12.90;;
11807;SDS011;5961;42.640;23.380;2022-12-24T01:42:42;19.67;;;11.50;;
11807;SDS011;5961;42.640;23.380;2022-12-24T01:45:36;16.63;;;12.00;;
11807;SDS011;5961;42.640;23.380;2022-12-24T01:48:08;24.23;;;13.67;;
11807;SDS011;5961;42.640;23.380;2022-12-24T01:50:44;18.43;;;11.50;;
11807;SDS011;5961;42.640;23.380;2022-12-24T01:53:12;18.80;;;11.07;;
11807;SDS011;5961;42.640;23.380;2022-12-24T01:55:40;17.57;;;11.47;;
11807;SDS011;5961;42.640;23.380;2022-12-24T01:58:10;19.07;;;12.10;;
11807;SDS011;5961;42.640;23.380;2022-12-24T02:00:39;19.43;;;12.37;;
11807;SDS011;5961;42.640;23.380;2022-12-24T02:03:06;20.30;;;12.93;;
11807;SDS011;5961;42.640;23.380;2022-12-24T02:05:33;21.47;;;13.60;;
11807;SDS011;5961;42.640;23.380;2022-12-24T02:08:07;21.60;;;13.60;;
11807;SDS011;5961;42.640;23.380;2022-12-24T02:10:35;19.33;;;12.43;;
11807;SDS011;5961;42.640;23.380;2022-12-24T02:13:02;18.27;;;13.10;;
11807;SDS011;5961;42.640;23.380;2022-12-24T02:15:33;19.20;;;12.97;;
11807;SDS011;5961;42.640;23.380;2022-12-24T02:18:13;21.23;;;13.47;;
11807;SDS011;5961;42.640;23.380;2022-12-24T02:20:59;21.93;;;13.03;;
11807;SDS011;5961;42.640;23.380;2022-12-24T02:26:57;18.17;;;11.20;;
11807;SDS011;5961;42.640;23.380;2022-12-24T02:32:31;23.13;;;12.83;;
11807;SDS011;5961;42.640;23.380;2022-12-24T02:35:03;22.17;;;13.57;;
11807;SDS011;5961;42.640;23.380;2022-12-24T02:37:35;22.17;;;14.53;;
11807;SDS011;5961;42.640;23.380;2022-12-24T02:40:05;23.87;;;14.07;;
11807;SDS011;5961;42.640;23.380;2022-12-24T02:42:36;22.70;;;14.50;;
11807;SDS011;5961;42.640;23.380;2022-12-24T02:45:08;26.60;;;15.03;;
11807;SDS011;5961;42.640;23.380;2022-12-24T02:47:38;23.63;;;14.93;;
11807;SDS011;5961;42.640;23.380;2022-12-24T02:50:08;24.43;;;14.50;;
11807;SDS011;5961;42.640;23.380;2022-12-24T02:52:37;22.80;;;15.77;;
11807;SDS011;5961;42.640;23.380;2022-12-24T02:55:07;24.83;;;15.40;;
11807;SDS011;5961;42.640;23.380;2022-12-24T02:57:42;22.50;;;15.43;;
11807;SDS011;5961;42.640;23.380;2022-12-24T03:00:23;19.43;;;12.43;;
11807;SDS011;5961;42.640;23.380;2022-12-24T03:03:01;18.77;;;10.97;;
11807;SDS011;5961;42.640;23.380;2022-12-24T03:05:44;19.83;;;11.97;;
11807;SDS011;5961;42.640;23.380;2022-12-24T03:08:15;16.77;;;11.30;;
11807;SDS011;5961;42.640;23.380;2022-12-24T03:10:59;19.37;;;10.97;;
11807;SDS011;5961;42.640;23.380;2022-12-24T03:13:28;12.20;;;7.87;;
11807;SDS011;5961;42.640;23.380;2022-12-24T03:15:56;16.03;;;8.43;;
11807;SDS011;5961;42.640;23.380;2022-12-24T03:18:24;16.33;;;9.67;;
11807;SDS011;5961;42.640;23.380;2022-12-24T03:20:55;16.83;;;9.60;;
11807;SDS011;5961;42.640;23.380;2022-12-24T03:23:26;16.77;;;10.20;;
11807;SDS011;5961;42.640;23.380;2022-12-24T03:25:52;14.50;;;8.83;;
11807;SDS011;5961;42.640;23.380;2022-12-24T03:28:22;13.03;;;9.27;;
11807;SDS011;5961;42.640;23.380;2022-12-24T03:30:51;12.67;;;7.87;;
11807;SDS011;5961;42.640;23.380;2022-12-24T03:33:19;11.33;;;7.37;;
11807;SDS011;5961;42.640;23.380;2022-12-24T03:35:46;11.17;;;7.57;;
11807;SDS011;5961;42.640;23.380;2022-12-24T03:38:13;10.97;;;6.73;;
11807;SDS011;5961;42.640;23.380;2022-12-24T03:40:40;10.57;;;6.63;;
11807;SDS011;5961;42.640;23.380;2022-12-24T03:43:07;9.13;;;6.23;;
11807;SDS011;5961;42.640;23.380;2022-12-24T03:45:33;8.70;;;5.30;;
11807;SDS011;5961;42.640;23.380;2022-12-24T03:48:00;8.93;;;5.30;;
11807;SDS011;5961;42.640;23.380;2022-12-24T03:50:28;9.33;;;5.10;;
11807;SDS011;5961;42.640;23.380;2022-12-24T03:52:55;8.77;;;5.27;;
11807;SDS011;5961;42.640;23.380;2022-12-24T03:55:22;8.10;;;5.40;;
11807;SDS011;5961;42.640;23.380;2022-12-24T03:57:49;7.07;;;5.50;;
11807;SDS011;5961;42.640;23.380;2022-12-24T04:00:16;8.67;;;5.40;;
11807;SDS011;5961;42.640;23.380;2022-12-24T04:02:43;7.60;;;4.97;;
11807;SDS011;5961;42.640;23.380;2022-12-24T04:05:13;7.60;;;5.37;;
11807;SDS011;5961;42.640;23.380;2022-12-24T04:07:43;7.10;;;5.50;;
11807;SDS011;5961;42.640;23.380;2022-12-24T04:10:10;6.80;;;5.10;;
11807;SDS011;5961;42.640;23.380;2022-12-24T04:12:38;7.80;;;5.07;;
11807;SDS011;5961;42.640;23.380;2022-12-24T04:15:05;7.73;;;4.70;;
11807;SDS011;5961;42.640;23.380;2022-12-24T04:17:33;8.40;;;5.50;;
11807;SDS011;5961;42.640;23.380;2022-12-24T04:19:59;8.23;;;5.37;;
11807;SDS011;5961;42.640;23.380;2022-12-24T04:22:26;8.53;;;5.60;;
11807;SDS011;5961;42.640;23.380;2022-12-24T04:24:54;8.13;;;5.57;;
11807;SDS011;5961;42.640;23.380;2022-12-24T04:27:21;9.20;;;5.80;;
11807;SDS011;5961;42.640;23.380;2022-12-24T04:29:47;9.67;;;6.20;;
11807;SDS011;5961;42.640;23.380;2022-12-24T04:32:14;11.03;;;7.10;;
11807;SDS011;5961;42.640;23.380;2022-12-24T04:34:41;15.20;;;7.83;;
11807;SDS011;5961;42.640;23.380;2022-12-24T04:37:08;14.90;;;9.70;;
11807;SDS011;5961;42.640;23.380;2022-12-24T04:39:35;16.53;;;9.80;;
11807;SDS011;5961;42.640;23.380;2022-12-24T04:42:03;16.57;;;10.80;;
11807;SDS011;5961;42.640;23.380;2022-12-24T04:44:30;16.50;;;10.67;;
11807;SDS011;5961;42.640;23.380;2022-12-24T04:46:56;15.93;;;10.83;;
11807;SDS011;5961;42.640;23.380;2022-12-24T04:49:23;18.97;;;11.70;;
11807;SDS011;5961;42.640;23.380;2022-12-24T04:51:50;16.63;;;11.43;;
11807;SDS011;5961;42.640;23.380;2022-12-24T04:54:16;18.97;;;11.57;;
11807;SDS011;5961;42.640;23.380;2022-12-24T04:56:43;14.73;;;10.80;;
11807;SDS011;5961;42.640;23.380;2022-12-24T04:59:11;18.27;;;12.20;;
11807;SDS011;5961;42.640;23.380;2022-12-24T05:01:38;17.97;;;11.10;;
11807;SDS011;5961;42.640;23.380;2022-12-24T05:04:05;22.50;;;12.33;;
11807;SDS011;5961;42.640;23.380;2022-12-24T05:06:32;21.53;;;14.10;;
11807;SDS011;5961;42.640;23.380;2022-12-24T05:08:59;19.93;;;12.43;;
11807;SDS011;5961;42.640;23.380;2022-12-24T05:11:26;21.10;;;13.17;;
11807;SDS011;5961;42.640;23.380;2022-12-24T05:13:53;21.50;;;12.50;;
11807;SDS011;5961;42.640;23.380;2022-12-24T05:16:22;17.30;;;11.53;;
11807;SDS011;5961;42.640;23.380;2022-12-24T05:18:49;14.30;;;9.63;;
11807;SDS011;5961;42.640;23.380;2022-12-24T05:21:17;12.73;;;8.13;;
11807;SDS011;5961;42.640;23.380;2022-12-24T05:23:45;11.20;;;7.80;;
11807;SDS011;5961;42.640;23.380;2022-12-24T05:26:31;10.77;;;7.00;;
11807;SDS011;5961;42.640;23.380;2022-12-24T05:29:01;8.67;;;6.23;;
11807;SDS011;5961;42.640;23.380;2022-12-24T05:31:30;9.80;;;6.67;;
11807;SDS011;5961;42.640;23.380;2022-12-24T05:33:59;8.60;;;6.53;;
11807;SDS011;5961;42.640;23.380;2022-12-24T05:36:25;9.83;;;6.37;;
11807;SDS011;5961;42.640;23.380;2022-12-24T05:38:52;8.23;;;6.10;;
11807;SDS011;5961;42.640;23.380;2022-12-24T05:41:19;8.10;;;5.70;;
11807;SDS011;5961;42.640;23.380;2022-12-24T05:43:47;7.53;;;5.30;;
11807;SDS011;5961;42.640;23.380;2022-12-24T05:46:14;8.47;;;5.37;;
11807;SDS011;5961;42.640;23.380;2022-12-24T05:48:45;8.80;;;5.20;;
11807;SDS011;5961;42.640;23.380;2022-12-24T05:51:13;6.87;;;4.97;;
11807;SDS011;5961;42.640;23.380;2022-12-24T05:53:42;9.60;;;5.40;;
11807;SDS011;5961;42.640;23.380;2022-12-24T05:56:10;7.53;;;5.53;;
11807;SDS011;5961;42.640;23.380;2022-12-24T05:58:38;7.50;;;5.30;;
11807;SDS011;5961;42.640;23.380;2022-12-24T06:01:06;7.73;;;5.43;;
11807;SDS011;5961;42.640;23.380;2022-12-24T06:03:33;7.77;;;4.80;;
11807;SDS011;5961;42.640;23.380;2022-12-24T06:06:02;8.83;;;5.13;;
11807;SDS011;5961;42.640;23.380;2022-12-24T06:08:31;8.47;;;5.43;;
11807;SDS011;5961;42.640;23.380;2022-12-24T06:10:59;9.43;;;6.03;;
11807;SDS011;5961;42.640;23.380;2022-12-24T06:13:28;9.13;;;5.87;;
11807;SDS011;5961;42.640;23.380;2022-12-24T06:15:56;7.83;;;5.27;;
11807;SDS011;5961;42.640;23.380;2022-12-24T06:18:23;9.97;;;6.23;;
11807;SDS011;5961;42.640;23.380;2022-12-24T06:20:51;11.63;;;6.13;;
11807;SDS011;5961;42.640;23.380;2022-12-24T06:23:20;8.93;;;5.83;;
11807;SDS011;5961;42.640;23.380;2022-12-24T06:25:47;8.13;;;5.97;;
11807;SDS011;5961;42.640;23.380;2022-12-24T06:28:14;8.07;;;6.17;;
11807;SDS011;5961;42.640;23.380;2022-12-24T06:30:44;9.00;;;6.67;;
11807;SDS011;5961;42.640;23.380;2022-12-24T06:33:12;11.03;;;7.30;;
11807;SDS011;5961;42.640;23.380;2022-12-24T06:35:38;8.97;;;6.87;;
11807;SDS011;5961;42.640;23.380;2022-12-24T06:38:05;10.90;;;6.87;;
11807;SDS011;5961;42.640;23.380;2022-12-24T06:40:33;10.97;;;7.47;;
11807;SDS011;5961;42.640;23.380;2022-12-24T06:43:00;11.97;;;7.43;;
11807;SDS011;5961;42.640;23.380;2022-12-24T06:45:27;11.23;;;7.40;;
11807;SDS011;5961;42.640;23.380;2022-12-24T06:47:53;10.30;;;6.97;;
11807;SDS011;5961;42.640;23.380;2022-12-24T06:50:20;16.07;;;9.27;;
11807;SDS011;5961;42.640;23.380;2022-12-24T06:52:47;11.53;;;8.33;;
11807;SDS011;5961;42.640;23.380;2022-12-24T06:55:14;13.50;;;8.90;;
11807;SDS011;5961;42.640;23.380;2022-12-24T06:57:42;16.30;;;10.60;;
11807;SDS011;5961;42.640;23.380;2022-12-24T07:00:09;17.77;;;11.17;;
11807;SDS011;5961;42.640;23.380;2022-12-24T07:02:38;12.40;;;8.33;;
11807;SDS011;5961;42.640;23.380;2022-12-24T07:05:05;17.00;;;10.90;;
11807;SDS011;5961;42.640;23.380;2022-12-24T07:07:33;19.03;;;10.97;;
11807;SDS011;5961;42.640;23.380;2022-12-24T07:10:00;21.43;;;14.63;;
11807;SDS011;5961;42.640;23.380;2022-12-24T07:12:27;23.43;;;13.10;;
11807;SDS011;5961;42.640;23.380;2022-12-24T07:14:55;21.47;;;13.53;;
11807;SDS011;5961;42.640;23.380;2022-12-24T07:17:22;19.03;;;12.50;;
11807;SDS011;5961;42.640;23.380;2022-12-24T07:19:48;20.83;;;12.43;;
11807;SDS011;5961;42.640;23.380;2022-12-24T07:22:15;18.60;;;12.23;;
11807;SDS011;5961;42.640;23.380;2022-12-24T07:24:42;19.57;;;13.40;;
11807;SDS011;5961;42.640;23.380;2022-12-24T07:27:09;21.93;;;13.20;;
11807;SDS011;5961;42.640;23.380;2022-12-24T07:29:35;22.80;;;14.53;;
11807;SDS011;5961;42.640;23.380;2022-12-24T07:32:04;20.77;;;12.73;;
11807;SDS011;5961;42.640;23.380;2022-12-24T07:34:30;26.00;;;15.77;;
11807;SDS011;5961;42.640;23.380;2022-12-24T07:36:57;21.23;;;12.00;;
11807;SDS011;5961;42.640;23.380;2022-12-24T07:39:24;18.00;;;11.10;;
11807;SDS011;5961;42.640;23.380;2022-12-24T07:41:51;17.00;;;10.10;;
11807;SDS011;5961;42.640;23.380;2022-12-24T07:44:18;16.30;;;10.70;;
11807;SDS011;5961;42.640;23.380;2022-12-24T07:46:44;20.77;;;11.30;;
11807;SDS011;5961;42.640;23.380;2022-12-24T07:49:12;18.07;;;10.93;;
11807;SDS011;5961;42.640;23.380;2022-12-24T07:51:39;16.43;;;9.80;;
11807;SDS011;5961;42.640;23.380;2022-12-24T07:54:06;12.87;;;9.13;;
11807;SDS011;5961;42.640;23.380;2022-12-24T07:56:33;17.83;;;10.83;;
11807;SDS011;5961;42.640;23.380;2022-12-24T07:59:00;19.10;;;10.00;;
11807;SDS011;5961;42.640;23.380;2022-12-24T08:01:26;16.90;;;10.03;;
11807;SDS011;5961;42.640;23.380;2022-12-24T08:03:53;14.77;;;8.67;;
11807;SDS011;5961;42.640;23.380;2022-12-24T08:06:21;15.87;;;10.03;;
11807;SDS011;5961;42.640;23.380;2022-12-24T08:08:48;13.43;;;8.40;;
11807;SDS011;5961;42.640;23.380;2022-12-24T08:11:15;12.90;;;8.80;;
11807;SDS011;5961;42.640;23.380;2022-12-24T08:13:42;13.70;;;8.33;;
11807;SDS011;5961;42.640;23.380;2022-12-24T08:16:08;13.17;;;9.43;;
11807;SDS011;5961;42.640;23.380;2022-12-24T08:18:35;13.80;;;9.13;;
11807;SDS011;5961;42.640;23.380;2022-12-24T08:21:02;23.97;;;14.17;;
11807;SDS011;5961;42.640;23.380;2022-12-24T08:23:33;14.50;;;9.90;;
11807;SDS011;5961;42.640;23.380;2022-12-24T08:26:00;18.00;;;11.40;;
11807;SDS011;5961;42.640;23.380;2022-12-24T08:28:26;23.67;;;14.63;;
11807;SDS011;5961;42.640;23.380;2022-12-24T08:30:53;23.27;;;13.23;;
11807;SDS011;5961;42.640;23.380;2022-12-24T08:33:20;26.03;;;14.87;;
11807;SDS011;5961;42.640;23.380;2022-12-24T08:35:47;20.83;;;13.83;;
11807;SDS011;5961;42.640;23.380;2022-12-24T08:38:14;23.17;;;13.90;;
11807;SDS011;5961;42.640;23.380;2022-12-24T08:40:43;21.67;;;14.43;;
11807;SDS011;5961;42.640;23.380;2022-12-24T08:43:11;23.93;;;15.90;;
11807;SDS011;5961;42.640;23.380;2022-12-24T08:45:38;23.17;;;14.80;;
11807;SDS011;5961;42.640;23.380;2022-12-24T08:48:05;27.30;;;15.10;;
11807;SDS011;5961;42.640;23.380;2022-12-24T08:50:32;28.50;;;17.97;;
11807;SDS011;5961;42.640;23.380;2022-12-24T08:52:59;31.47;;;17.93;;
11807;SDS011;5961;42.640;23.380;2022-12-24T08:55:25;31.87;;;20.20;;
11807;SDS011;5961;42.640;23.380;2022-12-24T08:57:54;34.17;;;21.23;;
11807;SDS011;5961;42.640;23.380;2022-12-24T09:00:20;37.70;;;23.53;;
11807;SDS011;5961;42.640;23.380;2022-12-24T09:02:48;37.53;;;23.63;;
11807;SDS011;5961;42.640;23.380;2022-12-24T09:05:15;41.13;;;25.17;;
11807;SDS011;5961;42.640;23.380;2022-12-24T09:07:41;36.80;;;24.60;;
11807;SDS011;5961;42.640;23.380;2022-12-24T09:10:09;34.23;;;22.77;;
11807;SDS011;5961;42.640;23.380;2022-12-24T09:12:36;34.93;;;22.17;;
11807;SDS011;5961;42.640;23.380;2022-12-24T09:15:05;30.73;;;20.13;;
11807;SDS011;5961;42.640;23.380;2022-12-24T09:17:33;29.93;;;20.43;;
11807;SDS011;5961;42.640;23.380;2022-12-24T09:20:00;28.70;;;18.80;;
11807;SDS011;5961;42.640;23.380;2022-12-24T09:22:27;27.90;;;17.73;;
11807;SDS011;5961;42.640;23.380;2022-12-24T09:24:54;25.03;;;16.40;;
11807;SDS011;5961;42.640;23.380;2022-12-24T09:27:20;29.13;;;17.97;;
11807;SDS011;5961;42.640;23.380;2022-12-24T09:29:47;34.67;;;19.27;;
11807;SDS011;5961;42.640;23.380;2022-12-24T09:32:16;27.30;;;16.13;;
11807;SDS011;5961;42.640;23.380;2022-12-24T09:34:42;27.10;;;17.50;;
11807;SDS011;5961;42.640;23.380;2022-12-24T09:37:09;29.43;;;16.73;;
11807;SDS011;5961;42.640;23.380;2022-12-24T09:39:36;30.93;;;18.43;;
11807;SDS011;5961;42.640;23.380;2022-12-24T09:42:04;28.43;;;18.30;;
11807;SDS011;5961;42.640;23.380;2022-12-24T09:44:41;31.87;;;20.43;;
11807;SDS011;5961;42.640;23.380;2022-12-24T09:47:16;35.27;;;21.20;;
11807;SDS011;5961;42.640;23.380;2022-12-24T09:49:50;36.13;;;22.30;;
11807;SDS011;5961;42.640;23.380;2022-12-24T09:52:22;39.53;;;22.37;;
11807;SDS011;5961;42.640;23.380;2022-12-24T09:54:55;38.77;;;23.90;;
11807;SDS011;5961;42.640;23.380;2022-12-24T09:57:27;35.93;;;22.00;;
11807;SDS011;5961;42.640;23.380;2022-12-24T09:59:59;38.33;;;22.60;;
11807;SDS011;5961;42.640;23.380;2022-12-24T10:02:29;35.70;;;23.30;;
11807;SDS011;5961;42.640;23.380;2022-12-24T10:04:57;38.53;;;23.93;;
11807;SDS011;5961;42.640;23.380;2022-12-24T10:07:29;42.43;;;25.20;;
11807;SDS011;5961;42.640;23.380;2022-12-24T10:10:10;41.33;;;25.90;;
11807;SDS011;5961;42.640;23.380;2022-12-24T10:12:43;50.73;;;27.40;;
11807;SDS011;5961;42.640;23.380;2022-12-24T10:15:19;50.23;;;28.53;;
11807;SDS011;5961;42.640;23.380;2022-12-24T10:17:59;48.93;;;28.63;;
11807;SDS011;5961;42.640;23.380;2022-12-24T10:20:36;45.67;;;27.90;;
11807;SDS011;5961;42.640;23.380;2022-12-24T10:23:12;50.20;;;29.23;;
11807;SDS011;5961;42.640;23.380;2022-12-24T10:25:45;47.70;;;29.47;;
11807;SDS011;5961;42.640;23.380;2022-12-24T10:28:18;52.97;;;30.03;;
11807;SDS011;5961;42.640;23.380;2022-12-24T10:30:47;49.50;;;29.10;;
11807;SDS011;5961;42.640;23.380;2022-12-24T10:33:19;48.77;;;29.30;;
11807;SDS011;5961;42.640;23.380;2022-12-24T10:35:53;49.03;;;28.03;;
11807;SDS011;5961;42.640;23.380;2022-12-24T10:38:21;53.03;;;29.50;;
11807;SDS011;5961;42.640;23.380;2022-12-24T10:40:48;46.30;;;28.30;;
11807;SDS011;5961;42.640;23.380;2022-12-24T10:43:18;47.80;;;27.70;;
11807;SDS011;5961;42.640;23.380;2022-12-24T10:45:47;47.73;;;27.73;;
11807;SDS011;5961;42.640;23.380;2022-12-24T10:48:20;44.17;;;29.23;;
11807;SDS011;5961;42.640;23.380;2022-12-24T10:50:51;49.13;;;29.97;;
11807;SDS011;5961;42.640;23.380;2022-12-24T10:53:23;53.67;;;30.77;;
11807;SDS011;5961;42.640;23.380;2022-12-24T10:55:59;54.40;;;33.53;;
11807;SDS011;5961;42.640;23.380;2022-12-24T10:58:28;57.47;;;31.60;;
11807;SDS011;5961;42.640;23.380;2022-12-24T11:00:56;50.10;;;30.33;;
11807;SDS011;5961;42.640;23.380;2022-12-24T11:03:27;49.20;;;30.87;;
11807;SDS011;5961;42.640;23.380;2022-12-24T11:06:06;51.30;;;32.60;;
11807;SDS011;5961;42.640;23.380;2022-12-24T11:08:38;52.50;;;31.20;;
11807;SDS011;5961;42.640;23.380;2022-12-24T11:11:06;52.80;;;31.30;;
11807;SDS011;5961;42.640;23.380;2022-12-24T11:13:35;55.00;;;32.07;;
11807;SDS011;5961;42.640;23.380;2022-12-24T11:16:05;50.53;;;31.33;;
11807;SDS011;5961;42.640;23.380;2022-12-24T11:18:37;56.20;;;32.50;;
11807;SDS011;5961;42.640;23.380;2022-12-24T11:21:12;52.00;;;32.57;;
11807;SDS011;5961;42.640;23.380;2022-12-24T11:23:47;49.70;;;29.80;;
11807;SDS011;5961;42.640;23.380;2022-12-24T11:26:19;49.80;;;29.43;;
11807;SDS011;5961;42.640;23.380;2022-12-24T11:28:51;46.00;;;27.67;;
11807;SDS011;5961;42.640;23.380;2022-12-24T11:31:30;45.23;;;27.93;;
11807;SDS011;5961;42.640;23.380;2022-12-24T11:34:04;44.37;;;27.20;;
11807;SDS011;5961;42.640;23.380;2022-12-24T11:36:44;47.20;;;29.60;;
11807;SDS011;5961;42.640;23.380;2022-12-24T11:39:14;63.13;;;34.87;;
11807;SDS011;5961;42.640;23.380;2022-12-24T11:41:46;50.60;;;31.70;;
11807;SDS011;5961;42.640;23.380;2022-12-24T11:44:22;50.30;;;28.87;;
11807;SDS011;5961;42.640;23.380;2022-12-24T11:46:51;48.30;;;30.53;;
11807;SDS011;5961;42.640;23.380;2022-12-24T11:49:23;55.40;;;31.90;;
11807;SDS011;5961;42.640;23.380;2022-12-24T11:52:00;47.90;;;28.47;;
11807;SDS011;5961;42.640;23.380;2022-12-24T11:54:44;50.90;;;28.57;;
11807;SDS011;5961;42.640;23.380;2022-12-24T11:57:17;46.23;;;28.20;;
11807;SDS011;5961;42.640;23.380;2022-12-24T11:59:49;51.40;;;30.63;;
11807;SDS011;5961;42.640;23.380;2022-12-24T12:02:17;44.63;;;27.60;;
11807;SDS011;5961;42.640;23.380;2022-12-24T12:04:49;47.30;;;29.00;;
11807;SDS011;5961;42.640;23.380;2022-12-24T12:07:20;51.77;;;29.87;;
11807;SDS011;5961;42.640;23.380;2022-12-24T12:09:52;47.73;;;29.30;;
11807;SDS011;5961;42.640;23.380;2022-12-24T12:12:23;48.33;;;28.90;;
11807;SDS011;5961;42.640;23.380;2022-12-24T12:14:53;47.70;;;29.13;;
11807;SDS011;5961;42.640;23.380;2022-12-24T12:17:25;44.53;;;28.30;;
11807;SDS011;5961;42.640;23.380;2022-12-24T12:19:59;47.80;;;29.23;;
11807;SDS011;5961;42.640;23.380;2022-12-24T12:22:31;46.57;;;28.13;;
11807;SDS011;5961;42.640;23.380;2022-12-24T12:25:05;39.13;;;25.60;;
11807;SDS011;5961;42.640;23.380;2022-12-24T12:27:44;46.93;;;29.27;;
11807;SDS011;5961;42.640;23.380;2022-12-24T12:30:15;46.97;;;27.33;;
11807;SDS011;5961;42.640;23.380;2022-12-24T12:32:47;45.00;;;29.03;;
11807;SDS011;5961;42.640;23.380;2022-12-24T12:35:24;45.30;;;26.43;;
11807;SDS011;5961;42.640;23.380;2022-12-24T12:37:54;45.57;;;26.67;;
11807;SDS011;5961;42.640;23.380;2022-12-24T12:40:28;48.00;;;28.93;;
11807;SDS011;5961;42.640;23.380;2022-12-24T12:43:05;46.10;;;26.50;;
11807;SDS011;5961;42.640;23.380;2022-12-24T12:45:42;41.03;;;24.63;;
11807;SDS011;5961;42.640;23.380;2022-12-24T12:51:23;52.10;;;33.03;;
11807;SDS011;5961;42.640;23.380;2022-12-24T12:54:00;50.47;;;31.00;;
11807;SDS011;5961;42.640;23.380;2022-12-24T12:56:39;44.77;;;28.00;;
11807;SDS011;5961;42.640;23.380;2022-12-24T12:59:11;49.10;;;30.73;;
11807;SDS011;5961;42.640;23.380;2022-12-24T13:01:44;45.50;;;27.27;;
11807;SDS011;5961;42.640;23.380;2022-12-24T13:07:40;46.07;;;26.43;;
11807;SDS011;5961;42.640;23.380;2022-12-24T13:13:33;41.10;;;25.60;;
11807;SDS011;5961;42.640;23.380;2022-12-24T13:16:20;44.37;;;26.07;;
11807;SDS011;5961;42.640;23.380;2022-12-24T13:19:03;45.73;;;29.43;;
11807;SDS011;5961;42.640;23.380;2022-12-24T13:21:41;50.20;;;31.37;;
11807;SDS011;5961;42.640;23.380;2022-12-24T13:24:14;42.80;;;27.73;;
11807;SDS011;5961;42.640;23.380;2022-12-24T13:26:57;45.00;;;27.87;;
11807;SDS011;5961;42.640;23.380;2022-12-24T13:29:29;46.43;;;28.17;;
11807;SDS011;5961;42.640;23.380;2022-12-24T13:35:29;45.97;;;27.27;;
11807;SDS011;5961;42.640;23.380;2022-12-24T13:44:22;46.07;;;26.67;;
11807;SDS011;5961;42.640;23.380;2022-12-24T13:46:57;46.87;;;28.87;;
11807;SDS011;5961;42.640;23.380;2022-12-24T13:49:32;47.03;;;29.13;;
11807;SDS011;5961;42.640;23.380;2022-12-24T13:54:49;52.87;;;30.77;;
11807;SDS011;5961;42.640;23.380;2022-12-24T13:57:33;42.97;;;27.77;;
11807;SDS011;5961;42.640;23.380;2022-12-24T14:00:03;53.23;;;32.43;;
11807;SDS011;5961;42.640;23.380;2022-12-24T14:02:34;50.07;;;30.90;;
11807;SDS011;5961;42.640;23.380;2022-12-24T14:05:07;44.23;;;28.23;;
11807;SDS011;5961;42.640;23.380;2022-12-24T14:07:44;36.23;;;23.90;;
11807;SDS011;5961;42.640;23.380;2022-12-24T14:10:18;38.63;;;23.37;;
11807;SDS011;5961;42.640;23.380;2022-12-24T14:12:50;32.60;;;21.67;;
11807;SDS011;5961;42.640;23.380;2022-12-24T14:18:10;36.23;;;23.43;;
11807;SDS011;5961;42.640;23.380;2022-12-24T14:20:46;36.20;;;21.90;;
11807;SDS011;5961;42.640;23.380;2022-12-24T14:23:17;37.97;;;22.33;;
11807;SDS011;5961;42.640;23.380;2022-12-24T14:25:52;48.17;;;27.43;;
11807;SDS011;5961;42.640;23.380;2022-12-24T14:28:22;49.37;;;27.47;;
11807;SDS011;5961;42.640;23.380;2022-12-24T14:30:58;47.50;;;29.20;;
11807;SDS011;5961;42.640;23.380;2022-12-24T14:33:29;44.20;;;27.10;;
11807;SDS011;5961;42.640;23.380;2022-12-24T14:35:56;44.33;;;27.73;;
11807;SDS011;5961;42.640;23.380;2022-12-24T14:38:23;48.73;;;27.43;;
11807;SDS011;5961;42.640;23.380;2022-12-24T14:40:52;49.37;;;29.93;;
11807;SDS011;5961;42.640;23.380;2022-12-24T14:43:28;49.57;;;30.47;;
11807;SDS011;5961;42.640;23.380;2022-12-24T14:46:06;49.63;;;32.90;;
11807;SDS011;5961;42.640;23.380;2022-12-24T14:48:41;51.40;;;29.47;;
11807;SDS011;5961;42.640;23.380;2022-12-24T14:51:17;52.17;;;29.13;;
11807;SDS011;5961;42.640;23.380;2022-12-24T14:53:54;48.10;;;29.43;;
11807;SDS011;5961;42.640;23.380;2022-12-24T14:56:42;45.20;;;27.90;;
11807;SDS011;5961;42.640;23.380;2022-12-24T14:59:16;40.80;;;24.67;;
11807;SDS011;5961;42.640;23.380;2022-12-24T15:01:44;40.10;;;24.27;;
11807;SDS011;5961;42.640;23.380;2022-12-24T15:04:14;37.67;;;23.23;;
11807;SDS011;5961;42.640;23.380;2022-12-24T15:06:44;35.37;;;22.17;;
11807;SDS011;5961;42.640;23.380;2022-12-24T15:09:15;35.50;;;20.93;;
11807;SDS011;5961;42.640;23.380;2022-12-24T15:11:44;27.33;;;19.97;;
11807;SDS011;5961;42.640;23.380;2022-12-24T15:14:13;21.63;;;14.60;;
11807;SDS011;5961;42.640;23.380;2022-12-24T15:16:47;24.33;;;15.27;;